sensor_id;sensor_type;location;lat;lon;timestamp;temperature;humidity
44731;DHT22;30458;47.448;19.032;2023-05-07T00:00:23;18.40;99.90
44731;DHT22;30458;47.448;19.032;2023-05-07T00:10:25;18.40;99.90
44731;DHT22;30458;47.448;19.032;2023-05-07T00:20:26;18.00;99.90
44731;DHT22;30458;47.448;19.032;2023-05-07T00:30:27;18.00;99.90
44731;DHT22;30458;47.448;19.032;2023-05-07T00:40:28;18.00;99.90
44731;DHT22;30458;47.448;19.032;2023-05-07T00:50:29;18.00;99.90
44731;DHT22;30458;47.448;19.032;2023-05-07T01:00:30;17.60;99.90
44731;DHT22;30458;47.448;19.032;2023-05-07T01:10:33;17.40;99.90
44731;DHT22;30458;47.448;19.032;2023-05-07T01:20:37;17.30;99.90
44731;DHT22;30458;47.448;19.032;2023-05-07T01:30:41;17.40;99.90
44731;DHT22;30458;47.448;19.032;2023-05-07T01:40:45;17.30;99.90
44731;DHT22;30458;47.448;19.032;2023-05-07T01:50:47;17.10;99.90
44731;DHT22;30458;47.448;19.032;2023-05-07T02:00:48;17.00;99.90
44731;DHT22;30458;47.448;19.032;2023-05-07T02:10:49;16.90;99.90
44731;DHT22;30458;47.448;19.032;2023-05-07T02:20:52;16.90;99.90
44731;DHT22;30458;47.448;19.032;2023-05-07T02:30:53;16.80;99.90
44731;DHT22;30458;47.448;19.032;2023-05-07T02:40:56;16.50;99.90
44731;DHT22;30458;47.448;19.032;2023-05-07T02:50:58;16.20;99.90
44731;DHT22;30458;47.448;19.032;2023-05-07T03:00:59;15.80;99.90
44731;DHT22;30458;47.448;19.032;2023-05-07T03:11:08;15.70;99.90
44731;DHT22;30458;47.448;19.032;2023-05-07T03:21:12;15.30;99.90
44731;DHT22;30458;47.448;19.032;2023-05-07T03:31:13;15.50;99.90
44731;DHT22;30458;47.448;19.032;2023-05-07T03:41:18;15.60;99.90
44731;DHT22;30458;47.448;19.032;2023-05-07T03:51:20;15.90;99.90
44731;DHT22;30458;47.448;19.032;2023-05-07T04:01:22;16.10;99.90
44731;DHT22;30458;47.448;19.032;2023-05-07T04:11:23;16.20;99.90
44731;DHT22;30458;47.448;19.032;2023-05-07T04:21:24;16.00;99.90
44731;DHT22;30458;47.448;19.032;2023-05-07T04:31:26;16.10;99.90
44731;DHT22;30458;47.448;19.032;2023-05-07T04:41:29;16.20;99.90
44731;DHT22;30458;47.448;19.032;2023-05-07T04:51:31;16.50;99.90
44731;DHT22;30458;47.448;19.032;2023-05-07T05:01:34;16.80;99.90
44731;DHT22;30458;47.448;19.032;2023-05-07T05:11:43;18.00;99.90
44731;DHT22;30458;47.448;19.032;2023-05-07T05:21:44;18.90;99.90
44731;DHT22;30458;47.448;19.032;2023-05-07T05:31:47;20.20;99.90
44731;DHT22;30458;47.448;19.032;2023-05-07T05:41:48;21.60;99.90
44731;DHT22;30458;47.448;19.032;2023-05-07T05:51:49;22.50;99.90
44731;DHT22;30458;47.448;19.032;2023-05-07T06:01:56;23.60;98.70
44731;DHT22;30458;47.448;19.032;2023-05-07T06:11:58;24.50;96.30
44731;DHT22;30458;47.448;19.032;2023-05-07T06:22:04;25.00;95.20
44731;DHT22;30458;47.448;19.032;2023-05-07T06:32:12;25.40;94.30
44731;DHT22;30458;47.448;19.032;2023-05-07T06:42:14;26.20;92.80
44731;DHT22;30458;47.448;19.032;2023-05-07T06:52:21;26.00;91.40
44731;DHT22;30458;47.448;19.032;2023-05-07T07:02:24;25.10;91.90
44731;DHT22;30458;47.448;19.032;2023-05-07T07:12:25;25.00;92.70
44731;DHT22;30458;47.448;19.032;2023-05-07T07:22:27;24.40;92.70
44731;DHT22;30458;47.448;19.032;2023-05-07T07:32:30;23.50;93.80
44731;DHT22;30458;47.448;19.032;2023-05-07T07:42:33;22.70;95.40
44731;DHT22;30458;47.448;19.032;2023-05-07T07:52:35;23.20;95.30
44731;DHT22;30458;47.448;19.032;2023-05-07T08:02:36;23.70;94.30
44731;DHT22;30458;47.448;19.032;2023-05-07T08:12:42;23.40;95.20
44731;DHT22;30458;47.448;19.032;2023-05-07T08:22:45;23.10;96.80
44731;DHT22;30458;47.448;19.032;2023-05-07T08:32:46;22.70;97.50
44731;DHT22;30458;47.448;19.032;2023-05-07T08:42:49;22.40;99.00
44731;DHT22;30458;47.448;19.032;2023-05-07T08:52:52;22.10;99.90
44731;DHT22;30458;47.448;19.032;2023-05-07T09:02:56;22.20;99.90
44731;DHT22;30458;47.448;19.032;2023-05-07T09:13:00;22.30;99.90
44731;DHT22;30458;47.448;19.032;2023-05-07T09:23:03;22.40;99.90
44731;DHT22;30458;47.448;19.032;2023-05-07T09:33:07;22.60;99.90
44731;DHT22;30458;47.448;19.032;2023-05-07T09:43:12;22.90;99.90
44731;DHT22;30458;47.448;19.032;2023-05-07T09:53:19;23.40;98.70
44731;DHT22;30458;47.448;19.032;2023-05-07T10:03:21;23.70;97.10
44731;DHT22;30458;47.448;19.032;2023-05-07T10:13:29;23.40;97.70
44731;DHT22;30458;47.448;19.032;2023-05-07T10:23:33;23.20;97.20
44731;DHT22;30458;47.448;19.032;2023-05-07T10:33:38;22.90;97.70
44731;DHT22;30458;47.448;19.032;2023-05-07T10:43:44;22.40;98.40
44731;DHT22;30458;47.448;19.032;2023-05-07T11:04:16;22.10;98.60
44731;DHT22;30458;47.448;19.032;2023-05-07T11:14:44;22.40;97.10
44731;DHT22;30458;47.448;19.032;2023-05-07T11:24:49;22.70;96.80
44731;DHT22;30458;47.448;19.032;2023-05-07T11:34:55;23.00;95.70
44731;DHT22;30458;47.448;19.032;2023-05-07T11:44:56;23.20;94.90
44731;DHT22;30458;47.448;19.032;2023-05-07T11:55:03;23.30;95.10
44731;DHT22;30458;47.448;19.032;2023-05-07T12:05:05;23.50;93.70
44731;DHT22;30458;47.448;19.032;2023-05-07T12:15:08;23.70;92.80
44731;DHT22;30458;47.448;19.032;2023-05-07T12:25:13;23.90;92.90
44731;DHT22;30458;47.448;19.032;2023-05-07T12:35:31;24.10;91.10
44731;DHT22;30458;47.448;19.032;2023-05-07T12:45:37;24.00;90.50
44731;DHT22;30458;47.448;19.032;2023-05-07T12:55:45;24.10;89.70
44731;DHT22;30458;47.448;19.032;2023-05-07T13:05:46;24.10;90.70
44731;DHT22;30458;47.448;19.032;2023-05-07T13:15:47;24.10;89.80
44731;DHT22;30458;47.448;19.032;2023-05-07T13:25:53;24.10;91.10
44731;DHT22;30458;47.448;19.032;2023-05-07T13:35:57;24.10;89.50
44731;DHT22;30458;47.448;19.032;2023-05-07T13:45:58;24.10;90.30
44731;DHT22;30458;47.448;19.032;2023-05-07T13:56:00;24.00;88.40
44731;DHT22;30458;47.448;19.032;2023-05-07T14:06:01;23.90;86.90
44731;DHT22;30458;47.448;19.032;2023-05-07T14:16:04;23.80;89.30
44731;DHT22;30458;47.448;19.032;2023-05-07T14:26:05;23.60;89.30
44731;DHT22;30458;47.448;19.032;2023-05-07T14:36:06;23.60;90.00
44731;DHT22;30458;47.448;19.032;2023-05-07T14:46:07;23.70;86.00
44731;DHT22;30458;47.448;19.032;2023-05-07T14:56:10;23.70;86.00
44731;DHT22;30458;47.448;19.032;2023-05-07T15:06:16;23.50;87.90
44731;DHT22;30458;47.448;19.032;2023-05-07T15:16:19;23.30;89.20
44731;DHT22;30458;47.448;19.032;2023-05-07T15:26:27;23.30;89.60
44731;DHT22;30458;47.448;19.032;2023-05-07T15:36:27;23.20;90.30
44731;DHT22;30458;47.448;19.032;2023-05-07T15:46:28;23.20;90.40
44731;DHT22;30458;47.448;19.032;2023-05-07T15:56:31;23.30;89.40
44731;DHT22;30458;47.448;19.032;2023-05-07T16:06:35;23.00;86.60
44731;DHT22;30458;47.448;19.032;2023-05-07T16:16:39;22.90;86.00
44731;DHT22;30458;47.448;19.032;2023-05-07T16:26:42;22.60;86.30
44731;DHT22;30458;47.448;19.032;2023-05-07T16:36:43;22.50;86.10
44731;DHT22;30458;47.448;19.032;2023-05-07T16:46:44;22.40;86.20
44731;DHT22;30458;47.448;19.032;2023-05-07T16:56:47;22.10;86.60
44731;DHT22;30458;47.448;19.032;2023-05-07T17:06:48;21.70;86.30
44731;DHT22;30458;47.448;19.032;2023-05-07T17:16:49;21.70;86.60
44731;DHT22;30458;47.448;19.032;2023-05-07T17:26:54;21.50;86.90
44731;DHT22;30458;47.448;19.032;2023-05-07T17:36:57;21.40;86.30
44731;DHT22;30458;47.448;19.032;2023-05-07T17:46:58;21.10;86.80
44731;DHT22;30458;47.448;19.032;2023-05-07T17:57:02;21.00;86.00
44731;DHT22;30458;47.448;19.032;2023-05-07T18:07:03;20.70;86.00
44731;DHT22;30458;47.448;19.032;2023-05-07T18:17:06;20.50;86.00
44731;DHT22;30458;47.448;19.032;2023-05-07T18:27:07;20.30;85.80
44731;DHT22;30458;47.448;19.032;2023-05-07T18:37:09;20.30;85.90
44731;DHT22;30458;47.448;19.032;2023-05-07T18:47:10;20.30;86.60
44731;DHT22;30458;47.448;19.032;2023-05-07T18:57:15;20.00;87.50
44731;DHT22;30458;47.448;19.032;2023-05-07T19:07:16;19.70;88.80
44731;DHT22;30458;47.448;19.032;2023-05-07T19:17:17;19.30;90.00
44731;DHT22;30458;47.448;19.032;2023-05-07T19:27:21;19.10;91.70
44731;DHT22;30458;47.448;19.032;2023-05-07T19:37:22;18.90;96.10
44731;DHT22;30458;47.448;19.032;2023-05-07T19:47:25;18.50;98.30
44731;DHT22;30458;47.448;19.032;2023-05-07T19:57:28;18.00;99.90
44731;DHT22;30458;47.448;19.032;2023-05-07T20:07:31;17.60;99.90
44731;DHT22;30458;47.448;19.032;2023-05-07T20:17:32;17.10;98.70
44731;DHT22;30458;47.448;19.032;2023-05-07T20:27:32;16.80;98.00
44731;DHT22;30458;47.448;19.032;2023-05-07T20:37:37;16.70;98.10
44731;DHT22;30458;47.448;19.032;2023-05-07T20:47:39;16.50;98.30
44731;DHT22;30458;47.448;19.032;2023-05-07T20:57:44;16.50;98.00
44731;DHT22;30458;47.448;19.032;2023-05-07T21:07:45;16.40;98.10
44731;DHT22;30458;47.448;19.032;2023-05-07T21:17:45;16.10;97.40
44731;DHT22;30458;47.448;19.032;2023-05-07T21:27:46;15.50;96.10
44731;DHT22;30458;47.448;19.032;2023-05-07T21:37:47;15.10;95.50
44731;DHT22;30458;47.448;19.032;2023-05-07T21:47:48;15.20;95.60
44731;DHT22;30458;47.448;19.032;2023-05-07T21:57:51;15.20;95.30
44731;DHT22;30458;47.448;19.032;2023-05-07T22:07:54;15.30;95.20
44731;DHT22;30458;47.448;19.032;2023-05-07T22:17:55;15.20;95.40
44731;DHT22;30458;47.448;19.032;2023-05-07T22:27:58;15.10;95.40
44731;DHT22;30458;47.448;19.032;2023-05-07T22:38:01;15.00;96.10
44731;DHT22;30458;47.448;19.032;2023-05-07T22:48:07;14.70;96.50
44731;DHT22;30458;47.448;19.032;2023-05-07T22:58:08;14.70;96.50
44731;DHT22;30458;47.448;19.032;2023-05-07T23:08:08;14.30;96.60
44731;DHT22;30458;47.448;19.032;2023-05-07T23:18:09;14.10;97.20
44731;DHT22;30458;47.448;19.032;2023-05-07T23:28:12;14.10;96.90
44731;DHT22;30458;47.448;19.032;2023-05-07T23:38:13;14.10;97.10
44731;DHT22;30458;47.448;19.032;2023-05-07T23:48:15;14.30;96.80
44731;DHT22;30458;47.448;19.032;2023-05-07T23:58:16;14.50;96.50
